Time;durP1;ratioP1;P1;durP2;ratioP2;P2;SDS_P1;SDS_P2;PMS_P1;PMS_P2;Temp;Humidity;BMP_temperature;BMP_pressure;BME280_temperature;BME280_humidity;BME280_pressure;Samples;Min_cycle;Max_cycle;Signal;HPM_P1;HPM_P2
2023/04/13 00:02:06;;;;;;;1.55;1.45;;;6.80;99.90;;;;;;5093441;28;20184;-69
2023/04/13 00:04:32;;;;;;;1.23;1.15;;;6.80;99.90;;;;;;5092195;28;20192;-69
2023/04/13 00:07:01;;;;;;;0.60;0.60;;;6.90;99.90;;;;;;5092053;28;20250;-70
2023/04/13 00:09:30;;;;;;;0.70;0.70;;;6.90;99.90;;;;;;5092769;28;20192;-69
2023/04/13 00:11:59;;;;;;;1.17;1.08;;;6.90;99.90;;;;;;5092319;28;20207;-69
2023/04/13 00:14:34;;;;;;;0.90;0.90;;;6.90;99.90;;;;;;5092939;28;20204;-69
2023/04/13 00:17:00;;;;;;;4.10;1.38;;;6.90;99.90;;;;;;5093109;28;20184;-69
2023/04/13 00:19:25;;;;;;;0.60;0.60;;;6.90;99.90;;;;;;5092939;28;20184;-69
2023/04/13 00:21:52;;;;;;;5.28;1.13;;;6.90;99.90;;;;;;5091859;28;20238;-69
2023/04/13 00:24:18;;;;;;;1.08;1.05;;;6.90;99.90;;;;;;5093053;28;20226;-68
2023/04/13 00:26:45;;;;;;;0.85;0.85;;;6.90;99.90;;;;;;5092961;28;20658;-69
2023/04/13 00:29:11;;;;;;;0.80;0.80;;;6.90;99.90;;;;;;5093627;28;20198;-69
2023/04/13 00:31:38;;;;;;;0.80;0.80;;;6.90;99.90;;;;;;5096994;28;20227;-69
2023/04/13 00:34:04;;;;;;;2.63;1.10;;;6.80;99.90;;;;;;5095884;28;20615;-69
2023/04/13 00:36:30;;;;;;;1.02;1.02;;;6.80;99.90;;;;;;5097008;28;20560;-69
2023/04/13 00:38:56;;;;;;;0.70;0.70;;;6.80;99.90;;;;;;5097059;28;20180;-69
2023/04/13 00:41:25;;;;;;;0.95;0.90;;;6.90;99.90;;;;;;5096810;28;20191;-69
2023/04/13 00:43:52;;;;;;;1.33;1.23;;;6.90;99.90;;;;;;5095825;28;20199;-69
2023/04/13 00:46:19;;;;;;;0.60;0.60;;;6.90;99.90;;;;;;5097066;28;20674;-69
2023/04/13 00:48:47;;;;;;;0.70;0.70;;;6.90;99.90;;;;;;5095427;28;20196;-69
2023/04/13 00:51:16;;;;;;;0.75;0.75;;;6.90;99.90;;;;;;5096937;28;20571;-70
2023/04/13 00:53:42;;;;;;;1.00;1.00;;;6.90;99.90;;;;;;5095121;28;20740;-69
2023/04/13 00:56:09;;;;;;;0.88;0.88;;;6.90;99.90;;;;;;5096247;28;20180;-69
2023/04/13 00:58:36;;;;;;;0.98;0.95;;;7.00;99.90;;;;;;5096621;28;20506;-69
2023/04/13 01:01:02;;;;;;;0.77;0.77;;;7.00;99.90;;;;;;5096827;28;20214;-71
2023/04/13 01:03:58;;;;;;;0.70;0.70;;;6.90;99.90;;;;;;5080494;28;20279;-73
2023/04/13 01:10:06;;;;;;;0.60;0.60;;;6.80;99.90;;;;;;5012525;28;20210;-74
2023/04/13 01:16:23;;;;;;;0.60;0.60;;;6.80;99.90;;;;;;4994780;28;20261;-76
2023/04/13 01:29:10;;;;;;;0.60;0.60;;;6.90;99.90;;;;;;4979000;28;20206;-75
2023/04/13 01:35:22;;;;;;;1.17;1.17;;;6.90;99.90;;;;;;4917238;29;20752;-74
2023/04/13 01:38:24;;;;;;;0.80;0.80;;;6.80;99.90;;;;;;4917289;29;20615;-74
2023/04/13 01:40:50;;;;;;;0.80;0.80;;;6.80;99.90;;;;;;4823727;29;20586;-73
2023/04/13 01:43:30;;;;;;;1.60;1.50;;;6.70;99.90;;;;;;4812308;29;20686;-75
2023/04/13 01:46:48;;;;;;;0.60;0.60;;;6.70;99.90;;;;;;4830875;29;20224;-74
2023/04/13 01:53:45;;;;;;;0.82;0.82;;;6.70;99.90;;;;;;4842842;29;20226;-74
2023/04/13 01:56:37;;;;;;;0.75;0.75;;;6.70;99.90;;;;;;4832603;29;20216;-73
2023/04/13 02:10:25;;;;;;;0.65;0.65;;;6.70;99.90;;;;;;4761384;30;21267;-74
2023/04/13 02:12:53;;;;;;;0.98;0.98;;;6.70;99.90;;;;;;4788160;30;20230;-73
2023/04/13 02:22:23;;;;;;;0.80;0.80;;;6.60;99.90;;;;;;4880037;29;20746;-74
2023/04/13 02:25:30;;;;;;;0.60;0.60;;;6.60;99.90;;;;;;4869702;29;20224;-73
2023/04/13 02:28:16;;;;;;;1.58;1.27;;;6.60;99.90;;;;;;4874777;29;20213;-75
2023/04/13 02:31:36;;;;;;;0.80;0.80;;;6.60;99.90;;;;;;4936415;29;20574;-74
2023/04/13 02:34:02;;;;;;;1.10;1.00;;;6.60;99.90;;;;;;4978935;28;20303;-73
2023/04/13 02:36:38;;;;;;;1.60;1.50;;;6.60;99.90;;;;;;4994112;28;20211;-73
2023/04/13 02:39:19;;;;;;;1.00;1.00;;;6.60;99.90;;;;;;4995120;28;20202;-74
2023/04/13 02:41:54;;;;;;;1.08;1.05;;;6.60;99.90;;;;;;5012120;28;20237;-73
2023/04/13 02:45:11;;;;;;;0.90;0.90;;;6.60;99.90;;;;;;5013339;28;20196;-73
2023/04/13 02:47:37;;;;;;;10.63;2.10;;;6.70;99.90;;;;;;4946007;28;20778;-72
2023/04/13 02:50:04;;;;;;;0.52;0.52;;;6.70;99.90;;;;;;5013589;28;20666;-73
2023/04/13 02:52:30;;;;;;;0.68;0.68;;;6.70;99.90;;;;;;5011503;28;20230;-74
2023/04/13 02:54:59;;;;;;;0.93;0.93;;;6.70;99.90;;;;;;5013137;28;20690;-74
2023/04/13 02:57:34;;;;;;;0.90;0.90;;;6.70;99.90;;;;;;5013130;28;20717;-74
2023/04/13 03:00:10;;;;;;;0.60;0.60;;;6.80;99.90;;;;;;5031924;28;20275;-74
2023/04/13 03:02:45;;;;;;;0.77;0.77;;;6.80;99.90;;;;;;5024281;28;20237;-74
2023/04/13 03:05:12;;;;;;;0.60;0.60;;;6.80;99.90;;;;;;5032673;28;20193;-75
2023/04/13 03:11:12;;;;;;;0.70;0.70;;;6.80;99.90;;;;;;5032536;28;20727;-75
2023/04/13 03:17:52;;;;;;;1.00;1.00;;;6.80;99.90;;;;;;5023677;28;20273;-74
2023/04/13 03:20:29;;;;;;;0.63;0.63;;;6.90;99.90;;;;;;5012854;28;20214;-74
2023/04/13 03:23:04;;;;;;;0.70;0.70;;;6.90;99.90;;;;;;5014245;28;20217;-74
2023/04/13 03:29:13;;;;;;;0.73;0.73;;;7.00;99.90;;;;;;4934539;29;20213;-74
2023/04/13 03:31:47;;;;;;;0.70;0.70;;;6.90;99.90;;;;;;4972258;28;20212;-74
2023/04/13 03:34:32;;;;;;;;;;;;;;;;;;;;;
2023/04/13 03:37:43;;;;;;;2.33;1.63;;;6.90;99.90;;;;;;4974071;28;20295;-73
2023/04/13 03:40:47;;;;;;;0.60;0.60;;;6.90;99.90;;;;;;4954114;29;20203;-74
2023/04/13 03:43:18;;;;;;;0.80;0.80;;;7.00;99.90;;;;;;4878255;29;20219;-75
2023/04/13 03:49:14;;;;;;;0.60;0.60;;;7.00;99.90;;;;;;4908563;29;20221;-74
2023/04/13 03:55:31;;;;;;;0.60;0.60;;;7.00;99.90;;;;;;4897559;29;20221;-73
2023/04/13 03:58:00;;;;;;;0.70;0.70;;;7.10;99.90;;;;;;4827886;29;20690;-74
2023/04/13 04:00:26;;;;;;;0.95;0.95;;;7.10;99.90;;;;;;4823903;29;20209;-74
2023/04/13 04:03:24;;;;;;;1.77;1.08;;;7.10;99.90;;;;;;4913765;29;20209;-74
2023/04/13 04:06:01;;;;;;;0.80;0.80;;;7.10;99.90;;;;;;4953743;28;20201;-73
2023/04/13 04:11:38;;;;;;;1.10;1.00;;;7.10;99.90;;;;;;4952794;28;20221;-74
2023/04/13 04:14:07;;;;;;;0.70;0.70;;;7.20;99.90;;;;;;4983746;28;20225;-76
2023/04/13 04:16:48;;;;;;;0.80;0.80;;;7.20;99.90;;;;;;4997780;28;20261;-75
2023/04/13 04:19:23;;;;;;;0.80;0.80;;;7.20;99.90;;;;;;5043431;28;20252;-74
2023/04/13 04:26:03;;;;;;;1.80;0.98;;;7.30;99.90;;;;;;4953348;28;20211;-75
2023/04/13 04:29:08;;;;;;;0.65;0.65;;;7.30;99.90;;;;;;4952799;29;20657;-73
2023/04/13 04:31:35;;;;;;;0.60;0.60;;;7.40;99.90;;;;;;4877341;29;20203;-74
2023/04/13 04:34:04;;;;;;;1.00;1.00;;;7.40;99.90;;;;;;4877404;29;20219;-74
2023/04/13 04:36:57;;;;;;;0.70;0.70;;;7.40;99.90;;;;;;4878415;29;20215;-75
2023/04/13 04:39:43;;;;;;;0.70;0.70;;;7.40;99.90;;;;;;4864341;29;20226;-76
2023/04/13 04:42:17;;;;;;;1.48;1.38;;;7.30;99.90;;;;;;4863080;29;20207;-76
2023/04/13 04:44:48;;;;;;;0.70;0.70;;;7.20;99.90;;;;;;4878378;29;20851;-75
2023/04/13 04:47:20;;;;;;;0.60;0.60;;;7.10;99.90;;;;;;4878315;29;20232;-76
2023/04/13 04:49:46;;;;;;;0.70;0.70;;;7.10;99.90;;;;;;4925398;29;20228;-75
2023/04/13 04:56:51;;;;;;;0.60;0.60;;;7.00;99.90;;;;;;4962844;28;20261;-75
2023/04/13 04:59:31;;;;;;;0.70;0.70;;;7.00;99.90;;;;;;4880774;29;20294;-74
2023/04/13 05:02:01;;;;;;;1.20;1.13;;;6.90;99.90;;;;;;4916751;29;20219;-74
2023/04/13 05:05:21;;;;;;;0.70;0.70;;;6.90;99.90;;;;;;5052306;28;20207;-73
2023/04/13 05:08:04;;;;;;;0.68;0.68;;;6.90;99.90;;;;;;5095568;28;20743;-75
2023/04/13 05:10:48;;;;;;;0.70;0.70;;;6.90;99.90;;;;;;5114606;28;20195;-75
2023/04/13 05:13:28;;;;;;;0.68;0.68;;;6.90;99.90;;;;;;5114954;28;20203;-76
2023/04/13 05:16:23;;;;;;;0.70;0.70;;;6.90;99.90;;;;;;5115606;28;20190;-75
2023/04/13 05:18:52;;;;;;;0.60;0.60;;;7.00;99.90;;;;;;5024072;28;20242;-75
2023/04/13 05:21:31;;;;;;;0.80;0.80;;;7.00;99.90;;;;;;5015044;28;20258;-76
2023/04/13 05:28:06;;;;;;;1.35;1.25;;;7.10;99.90;;;;;;4906281;29;20261;-74
2023/04/13 05:34:40;;;;;;;0.77;0.77;;;7.10;99.90;;;;;;4978267;28;20222;-75
2023/04/13 05:37:14;;;;;;;1.63;1.52;;;7.20;99.90;;;;;;4977717;28;20196;-75
2023/04/13 05:39:50;;;;;;;0.60;0.60;;;7.20;99.90;;;;;;4994138;28;20203;-75
2023/04/13 05:42:25;;;;;;;2.50;2.30;;;7.30;99.90;;;;;;4977303;28;20215;-75
2023/04/13 05:45:20;;;;;;;0.70;0.70;;;7.30;99.90;;;;;;4977215;28;20264;-75
2023/04/13 06:02:01;;;;;;;0.82;0.80;;;7.70;99.90;;;;;;5032784;28;20685;-75
2023/04/13 06:05:04;;;;;;;1.30;1.17;;;7.60;99.90;;;;;;5019201;28;20296;-75
2023/04/13 06:07:34;;;;;;;0.70;0.70;;;7.60;99.90;;;;;;5055279;28;20216;-74
2023/04/13 06:10:15;;;;;;;0.60;0.60;;;7.60;99.90;;;;;;5056105;28;20215;-75
2023/04/13 06:13:00;;;;;;;0.77;0.77;;;7.50;99.90;;;;;;5039152;28;20197;-76
2023/04/13 06:15:42;;;;;;;0.80;0.80;;;7.60;99.90;;;;;;5035584;28;20385;-73
2023/04/13 06:18:33;;;;;;;0.70;0.70;;;7.50;99.90;;;;;;5058123;28;20221;-75
2023/04/13 06:21:39;;;;;;;0.60;0.60;;;7.50;99.90;;;;;;5039189;28;20221;-76
2023/04/13 06:24:05;;;;;;;0.68;0.68;;;7.60;99.90;;;;;;5025300;28;20684;-75
2023/04/13 06:34:12;;;;;;;0.70;0.70;;;7.70;99.90;;;;;;5034353;28;20328;-75
2023/04/13 06:51:38;;;;;;;0.75;0.75;;;7.90;99.90;;;;;;4862073;29;20667;-75
2023/04/13 06:54:44;;;;;;;0.70;0.70;;;7.80;99.90;;;;;;4856008;29;20703;-74
2023/04/13 07:01:05;;;;;;;0.63;0.63;;;7.90;99.90;;;;;;4834446;29;20226;-75
2023/04/13 07:03:31;;;;;;;0.65;0.65;;;8.00;99.90;;;;;;4845310;29;20662;-74
2023/04/13 07:06:34;;;;;;;0.70;0.70;;;8.00;99.90;;;;;;4847598;29;20719;-75
2023/04/13 07:09:00;;;;;;;0.77;0.77;;;8.00;99.90;;;;;;4788195;29;20762;-74
2023/04/13 07:11:28;;;;;;;0.70;0.70;;;7.90;99.90;;;;;;4770890;29;20231;-75
2023/04/13 07:13:54;;;;;;;0.60;0.60;;;7.90;99.90;;;;;;4785366;30;20231;-68
2023/04/13 07:16:20;;;;;;;0.60;0.60;;;7.90;99.90;;;;;;4770217;30;20319;-68
2023/04/13 07:19:10;;;;;;;0.65;0.65;;;7.90;99.90;;;;;;4770416;30;20713;-68
2023/04/13 07:21:39;;;;;;;0.63;0.63;;;7.90;99.90;;;;;;4805018;29;20328;-68
2023/04/13 07:24:05;;;;;;;0.70;0.70;;;7.90;99.90;;;;;;4838499;29;20211;-66
2023/04/13 07:27:07;;;;;;;0.60;0.60;;;7.90;99.90;;;;;;4907478;28;20204;-69
2023/04/13 07:29:50;;;;;;;0.80;0.80;;;8.00;99.90;;;;;;4973846;28;20227;-68
2023/04/13 07:33:00;;;;;;;0.70;0.70;;;8.00;99.90;;;;;;4974648;28;20207;-68
2023/04/13 07:35:45;;;;;;;0.60;0.60;;;8.00;99.90;;;;;;4959895;28;20339;-68
2023/04/13 07:38:33;;;;;;;0.93;0.93;;;8.10;99.90;;;;;;4989878;28;20200;-68
2023/04/13 07:41:00;;;;;;;0.60;0.60;;;8.10;99.90;;;;;;4952715;29;20288;-68
2023/04/13 07:43:28;;;;;;;0.60;0.60;;;8.20;99.90;;;;;;4972904;28;20204;-69
2023/04/13 07:46:08;;;;;;;0.60;0.60;;;8.40;99.90;;;;;;5007277;28;20205;-69
2023/04/13 07:48:34;;;;;;;2.15;1.23;;;8.40;99.90;;;;;;5034948;28;20224;-69
2023/04/13 07:51:01;;;;;;;0.60;0.60;;;8.40;99.90;;;;;;5052653;28;20622;-69
2023/04/13 07:57:02;;;;;;;0.70;0.70;;;8.40;99.90;;;;;;5008524;28;20610;-69
2023/04/13 07:59:28;;;;;;;0.60;0.60;;;8.40;99.90;;;;;;4972674;28;20204;-69
2023/04/13 08:01:54;;;;;;;0.60;0.60;;;8.50;99.90;;;;;;4973398;28;20215;-68
2023/04/13 08:04:23;;;;;;;0.60;0.60;;;8.60;99.90;;;;;;4971237;28;20220;-70
2023/04/13 08:06:54;;;;;;;0.50;0.50;;;8.60;99.90;;;;;;4973624;28;20231;-68
2023/04/13 08:09:20;;;;;;;0.60;0.60;;;8.70;99.90;;;;;;4972836;28;20317;-69
2023/04/13 08:16:23;;;;;;;0.60;0.60;;;8.70;99.90;;;;;;4862955;29;20303;-68
2023/04/13 08:18:49;;;;;;;0.60;0.60;;;8.70;99.90;;;;;;4862456;29;20237;-68
2023/04/13 08:24:41;;;;;;;1.42;1.33;;;8.60;99.90;;;;;;4893908;29;20214;-68
2023/04/13 08:27:10;;;;;;;0.70;0.70;;;8.50;99.90;;;;;;4896960;29;20205;-68
2023/04/13 08:29:36;;;;;;;0.70;0.70;;;8.50;99.90;;;;;;4937919;28;20204;-68
2023/04/13 08:32:02;;;;;;;0.60;0.60;;;8.50;99.90;;;;;;4972202;28;20263;-68
2023/04/13 08:34:28;;;;;;;0.90;0.82;;;8.40;99.90;;;;;;5008274;28;20228;-68
2023/04/13 08:37:40;;;;;;;0.70;0.70;;;8.30;99.90;;;;;;5093858;28;20191;-68
2023/04/13 08:40:10;;;;;;;0.90;0.90;;;8.20;99.90;;;;;;5093877;28;20317;-67
2023/04/13 08:42:37;;;;;;;0.70;0.70;;;8.10;99.90;;;;;;5093434;28;20277;-67
2023/04/13 08:48:18;;;;;;;0.75;0.75;;;8.00;99.90;;;;;;5050970;28;20205;-67
2023/04/13 08:50:46;;;;;;;0.60;0.60;;;8.00;99.90;;;;;;5052392;28;20205;-68
2023/04/13 08:53:47;;;;;;;0.68;0.68;;;7.90;99.90;;;;;;5055238;28;20316;-67
2023/04/13 08:56:37;;;;;;;0.65;0.65;;;7.90;99.90;;;;;;5033818;28;20205;-67
2023/04/13 08:59:06;;;;;;;0.60;0.60;;;7.90;99.90;;;;;;5036193;28;20204;-65
2023/04/13 09:01:43;;;;;;;1.08;1.00;;;7.70;99.90;;;;;;5037178;28;20201;-67
2023/04/13 09:04:16;;;;;;;0.70;0.70;;;7.70;99.90;;;;;;5054550;28;20595;-68
2023/04/13 09:07:37;;;;;;;0.85;0.85;;;7.80;99.90;;;;;;5053707;28;20263;-68
2023/04/13 09:10:13;;;;;;;1.08;1.00;;;7.70;99.90;;;;;;5054755;28;20202;-67
2023/04/13 09:12:50;;;;;;;0.60;0.60;;;7.80;99.90;;;;;;5035181;28;20823;-67
2023/04/13 09:15:18;;;;;;;0.70;0.70;;;7.70;99.90;;;;;;5034665;28;20316;-67
2023/04/13 09:17:47;;;;;;;1.33;1.23;;;7.60;99.90;;;;;;5034846;28;20333;-66
2023/04/13 09:20:21;;;;;;;1.27;1.17;;;7.60;99.90;;;;;;5095986;28;20259;-67
2023/04/13 09:23:44;;;;;;;0.60;0.60;;;7.50;99.90;;;;;;5096406;28;20232;-67
2023/04/13 09:26:13;;;;;;;0.80;0.80;;;7.50;99.90;;;;;;5029136;28;20231;-67
2023/04/13 09:29:41;;;;;;;0.82;0.82;;;7.60;99.90;;;;;;5111330;28;20224;-67
2023/04/13 09:33:03;;;;;;;0.80;0.80;;;7.60;99.90;;;;;;5014500;28;20218;-67
2023/04/13 09:35:33;;;;;;;0.90;0.90;;;7.70;99.90;;;;;;5029898;28;20566;-67
2023/04/13 09:45:43;;;;;;;0.60;0.60;;;7.80;99.90;;;;;;4917313;29;20210;-68
2023/04/13 09:48:29;;;;;;;0.70;0.70;;;7.90;99.90;;;;;;4888340;29;20210;-68
2023/04/13 09:51:11;;;;;;;0.65;0.65;;;7.90;99.90;;;;;;4902213;29;20246;-69
2023/04/13 09:53:48;;;;;;;3.50;1.70;;;7.90;99.90;;;;;;4955523;29;20224;-68
2023/04/13 09:56:17;;;;;;;1.58;1.40;;;8.00;99.90;;;;;;4955664;29;20674;-68
2023/04/13 10:02:35;;;;;;;0.55;0.55;;;8.10;99.90;;;;;;4954514;28;20679;-68
2023/04/13 10:05:39;;;;;;;0.77;0.77;;;8.30;99.90;;;;;;4922336;28;20776;-68
2023/04/13 10:08:33;;;;;;;0.65;0.65;;;8.50;99.90;;;;;;5018870;28;20213;-68
2023/04/13 10:11:36;;;;;;;0.68;0.68;;;8.60;99.90;;;;;;5034169;28;20194;-68
2023/04/13 10:24:28;;;;;;;0.60;0.60;;;8.80;99.90;;;;;;5118374;28;20693;-75
2023/04/13 10:27:00;;;;;;;0.60;0.60;;;9.00;99.90;;;;;;5116591;28;20211;-76
2023/04/13 10:36:10;;;;;;;0.60;0.60;;;9.30;99.90;;;;;;5072550;28;20220;-76
2023/04/13 10:39:18;;;;;;;0.82;0.82;;;9.40;99.90;;;;;;5056015;28;20204;-76
2023/04/13 10:42:01;;;;;;;0.50;0.50;;;9.40;99.90;;;;;;5013760;28;20214;-76
2023/04/13 10:45:17;;;;;;;0.50;0.50;;;9.30;99.90;;;;;;5073018;28;20620;-76
2023/04/13 10:48:51;;;;;;;0.50;0.50;;;9.20;99.90;;;;;;5056375;28;20209;-76
2023/04/13 10:51:48;;;;;;;0.93;0.93;;;9.10;99.90;;;;;;4996983;28;20714;-77
2023/04/13 10:54:43;;;;;;;0.73;0.73;;;9.00;99.90;;;;;;5033617;28;20280;-77
2023/04/13 10:57:10;;;;;;;0.70;0.70;;;8.90;99.90;;;;;;4955153;28;20270;-76
2023/04/13 10:59:52;;;;;;;0.70;0.70;;;8.90;99.90;;;;;;4955648;29;20205;-76
2023/04/13 11:02:42;;;;;;;0.70;0.70;;;8.90;99.90;;;;;;4919347;29;20217;-75
2023/04/13 11:05:21;;;;;;;1.27;1.17;;;9.00;99.90;;;;;;4972679;28;20243;-77
2023/04/13 11:08:26;;;;;;;4.32;1.40;;;9.00;99.90;;;;;;4974046;28;20272;-76
2023/04/13 11:14:53;;;;;;;0.50;0.50;;;9.10;99.90;;;;;;4859383;29;20228;-75
2023/04/13 11:17:21;;;;;;;0.90;0.90;;;9.10;99.90;;;;;;4823721;29;20202;-75
2023/04/13 11:20:29;;;;;;;0.60;0.60;;;9.00;99.90;;;;;;4824145;29;20662;-76
2023/04/13 11:22:56;;;;;;;0.88;0.88;;;9.00;99.90;;;;;;4801390;29;20237;-75
2023/04/13 11:26:15;;;;;;;0.60;0.60;;;9.00;99.90;;;;;;4772418;30;20246;-75
2023/04/13 11:28:44;;;;;;;1.50;1.40;;;8.90;99.90;;;;;;4815220;29;20220;-75
2023/04/13 11:31:20;;;;;;;0.73;0.73;;;8.80;99.90;;;;;;4841559;29;20242;-75
2023/04/13 11:34:01;;;;;;;0.70;0.70;;;8.70;99.90;;;;;;4860831;29;20295;-75
2023/04/13 11:36:32;;;;;;;0.60;0.60;;;8.50;99.90;;;;;;4897334;29;20211;-75
2023/04/13 11:39:05;;;;;;;1.20;1.10;;;8.40;99.90;;;;;;4897760;29;20215;-75
2023/04/13 11:41:32;;;;;;;0.73;0.73;;;8.40;99.90;;;;;;4897405;29;20203;-75
2023/04/13 11:44:01;;;;;;;0.60;0.60;;;8.30;99.90;;;;;;4897733;29;20225;-75
2023/04/13 11:47:09;;;;;;;0.60;0.60;;;8.30;99.90;;;;;;4897687;29;20209;-76
2023/04/13 11:49:46;;;;;;;0.60;0.60;;;8.30;99.90;;;;;;4916405;28;20254;-75
2023/04/13 11:52:18;;;;;;;0.75;0.75;;;8.20;99.90;;;;;;5011815;28;20190;-76
2023/04/13 11:54:47;;;;;;;0.70;0.70;;;8.10;99.90;;;;;;5012862;28;20226;-76
2023/04/13 11:57:17;;;;;;;0.60;0.60;;;8.10;99.90;;;;;;4993087;28;20262;-76
2023/04/13 12:00:27;;;;;;;0.60;0.60;;;8.10;99.90;;;;;;4997135;28;20206;-75
2023/04/13 12:03:18;;;;;;;0.60;0.60;;;8.10;99.90;;;;;;5012236;28;20210;-75
2023/04/13 12:05:46;;;;;;;0.60;0.60;;;8.00;99.90;;;;;;4993929;28;20215;-76
2023/04/13 12:08:25;;;;;;;0.70;0.70;;;8.10;99.90;;;;;;5012597;28;20230;-76
2023/04/13 12:11:02;;;;;;;0.60;0.60;;;8.10;99.90;;;;;;5012914;28;20237;-76
2023/04/13 12:13:52;;;;;;;1.20;1.10;;;8.10;99.90;;;;;;5012330;28;20384;-75
2023/04/13 12:23:34;;;;;;;0.70;0.70;;;8.20;99.90;;;;;;5022798;28;20262;-75
2023/04/13 12:26:07;;;;;;;0.60;0.60;;;8.30;99.90;;;;;;5031641;28;20724;-77
2023/04/13 12:28:39;;;;;;;0.60;0.60;;;8.30;99.90;;;;;;5012843;28;20689;-76
2023/04/13 12:32:10;;;;;;;0.60;0.60;;;8.40;99.90;;;;;;5030790;28;20212;-76
2023/04/13 12:34:59;;;;;;;0.60;0.60;;;8.40;99.90;;;;;;5014564;28;20222;-76
2023/04/13 12:37:40;;;;;;;1.30;1.17;;;8.40;99.90;;;;;;5031873;28;20265;-75
2023/04/13 12:40:14;;;;;;;1.23;1.13;;;8.30;99.90;;;;;;5031515;28;20197;-76
2023/04/13 12:42:49;;;;;;;1.33;1.10;;;8.40;99.90;;;;;;5031941;28;20708;-76
2023/04/13 12:45:20;;;;;;;0.60;0.60;;;8.40;99.90;;;;;;5031830;28;20198;-77
2023/04/13 12:47:57;;;;;;;0.60;0.60;;;8.40;99.90;;;;;;5031838;28;20272;-75
2023/04/13 12:50:44;;;;;;;0.55;0.55;;;8.50;99.90;;;;;;5031609;28;20194;-76
2023/04/13 12:53:57;;;;;;;0.60;0.60;;;8.50;99.90;;;;;;5014879;28;20720;-77
2023/04/13 12:57:15;;;;;;;;;;;;;;;;;;;;;
2023/04/13 13:00:07;;;;;;;0.50;0.50;;;8.60;99.90;;;;;;4953396;29;20205;-77
2023/04/13 13:02:51;;;;;;;0.50;0.50;;;8.60;99.90;;;;;;4953043;29;20217;-76
2023/04/13 13:05:32;;;;;;;0.55;0.55;;;8.80;99.90;;;;;;5026533;28;20681;-75
2023/04/13 13:08:33;;;;;;;2.58;1.95;;;8.80;99.90;;;;;;5050467;28;20204;-76
2023/04/13 13:11:47;;;;;;;1.02;0.95;;;8.90;99.90;;;;;;5073915;28;20328;-76
2023/04/13 13:14:15;;;;;;;0.65;0.65;;;9.10;99.90;;;;;;5010732;28;20234;-76
2023/04/13 13:16:59;;;;;;;0.80;0.80;;;9.20;99.90;;;;;;5011396;28;20275;-75
2023/04/13 13:19:25;;;;;;;0.60;0.60;;;9.30;99.90;;;;;;4998414;28;20256;-75
2023/04/13 13:21:55;;;;;;;0.68;0.68;;;9.30;99.90;;;;;;5014729;28;20199;-76
2023/04/13 13:24:21;;;;;;;0.60;0.60;;;9.40;99.90;;;;;;5030578;28;20234;-74
2023/04/13 13:27:59;;;;;;;;;;;;;;;;;;;;;
2023/04/13 13:30:26;;;;;;;1.85;1.35;;;9.40;99.90;;;;;;4971499;28;20335;-75
2023/04/13 13:32:54;;;;;;;1.25;1.15;;;9.30;99.90;;;;;;4972733;28;20341;-76
2023/04/13 13:35:51;;;;;;;0.75;0.73;;;9.20;99.90;;;;;;5014672;28;20234;-73
2023/04/13 13:38:26;;;;;;;0.88;0.88;;;9.10;99.90;;;;;;5026126;28;20230;-75
2023/04/13 13:40:58;;;;;;;0.80;0.80;;;9.00;99.90;;;;;;5015789;28;20225;-77
2023/04/13 13:43:27;;;;;;;0.50;0.50;;;8.80;99.90;;;;;;5015557;28;20207;-75
2023/04/13 13:45:59;;;;;;;0.60;0.60;;;8.80;99.90;;;;;;5015192;28;20198;-76
2023/04/13 13:48:31;;;;;;;1.33;1.23;;;8.80;99.90;;;;;;5015437;28;20626;-75
2023/04/13 13:51:02;;;;;;;0.73;0.73;;;8.80;99.90;;;;;;5044029;28;20291;-76
2023/04/13 13:53:31;;;;;;;0.80;0.80;;;8.90;99.90;;;;;;5074013;28;20296;-76
2023/04/13 13:56:02;;;;;;;0.65;0.65;;;9.00;99.90;;;;;;5097721;28;20192;-76
2023/04/13 13:58:31;;;;;;;0.60;0.60;;;9.10;99.90;;;;;;5079606;28;20192;-75
2023/04/13 14:01:04;;;;;;;0.70;0.70;;;9.20;99.90;;;;;;5089393;28;20227;-76
2023/04/13 14:03:38;;;;;;;1.48;1.23;;;9.20;99.90;;;;;;5117067;28;20270;-75
2023/04/13 14:06:09;;;;;;;0.60;0.60;;;9.20;99.90;;;;;;5098391;28;20237;-76
2023/04/13 14:08:35;;;;;;;1.63;1.15;;;9.30;99.90;;;;;;5096716;28;20233;-76
2023/04/13 14:11:08;;;;;;;0.60;0.60;;;9.40;99.90;;;;;;5097951;28;20538;-75
2023/04/13 14:13:37;;;;;;;0.80;0.80;;;9.40;99.90;;;;;;5096104;28;20203;-76
2023/04/13 14:19:05;;;;;;;0.65;0.65;;;9.40;99.90;;;;;;5033666;28;20281;-77
2023/04/13 14:21:31;;;;;;;20.05;2.10;;;9.40;99.90;;;;;;5034271;28;20290;-75
2023/04/13 14:24:10;;;;;;;0.75;0.75;;;9.40;99.90;;;;;;5033401;28;20222;-75
2023/04/13 14:26:37;;;;;;;1.25;1.15;;;9.40;99.90;;;;;;5016922;28;20668;-75
2023/04/13 14:29:39;;;;;;;1.35;1.25;;;9.40;99.90;;;;;;5033297;28;20206;-76
2023/04/13 14:32:05;;;;;;;0.82;0.82;;;9.40;99.90;;;;;;5017210;28;20611;-76
2023/04/13 14:34:55;;;;;;;0.55;0.55;;;9.40;99.90;;;;;;5017042;28;20245;-75
2023/04/13 14:37:59;;;;;;;;;;;;;;;;;;;;;
2023/04/13 14:41:07;;;;;;;0.70;0.70;;;9.30;99.90;;;;;;5033537;28;20189;-75
2023/04/13 14:43:45;;;;;;;0.77;0.77;;;9.30;99.90;;;;;;4955367;29;20205;-75
2023/04/13 14:46:20;;;;;;;0.60;0.60;;;9.20;99.90;;;;;;4956442;28;20680;-76
2023/04/13 14:49:00;;;;;;;0.50;0.50;;;9.20;99.90;;;;;;5019021;28;20213;-76
2023/04/13 14:51:30;;;;;;;0.65;0.63;;;9.20;99.90;;;;;;5016702;28;20668;-76
2023/04/13 14:53:56;;;;;;;0.80;0.80;;;9.10;99.90;;;;;;5047851;28;20241;-76
2023/04/13 15:03:19;;;;;;;0.68;0.68;;;8.90;99.90;;;;;;5071653;28;20200;-76
2023/04/13 15:05:53;;;;;;;0.70;0.70;;;8.90;99.90;;;;;;5095547;28;20192;-75
2023/04/13 15:08:22;;;;;;;1.20;1.10;;;8.90;99.90;;;;;;5095457;28;20203;-75
2023/04/13 15:10:59;;;;;;;0.90;0.90;;;8.80;99.90;;;;;;5076813;28;20223;-75
2023/04/13 15:13:26;;;;;;;1.00;0.93;;;8.80;99.90;;;;;;5050111;28;20220;-75
2023/04/13 15:16:07;;;;;;;3.05;2.05;;;8.80;99.90;;;;;;5074684;28;20731;-76
2023/04/13 15:18:57;;;;;;;0.70;0.70;;;8.80;99.90;;;;;;5074739;28;20181;-75
2023/04/13 15:21:36;;;;;;;0.88;0.88;;;8.80;99.90;;;;;;5075199;28;20595;-75
2023/04/13 15:27:40;;;;;;;0.63;0.63;;;8.80;99.90;;;;;;5067366;28;20204;-75
2023/04/13 15:30:47;;;;;;;1.35;1.25;;;8.80;99.90;;;;;;5074262;28;20201;-75
2023/04/13 15:33:15;;;;;;;1.98;1.00;;;8.70;99.90;;;;;;5063217;28;20208;-75
2023/04/13 15:36:03;;;;;;;1.20;1.10;;;8.60;99.90;;;;;;5089980;28;20216;-75
2023/04/13 15:38:39;;;;;;;0.60;0.60;;;8.60;99.90;;;;;;5074483;28;20197;-76
2023/04/13 15:44:55;;;;;;;0.70;0.70;;;8.60;99.90;;;;;;5012683;28;20209;-76
2023/04/13 15:47:24;;;;;;;1.02;1.00;;;8.60;99.90;;;;;;5012777;28;20333;-73
2023/04/13 15:50:43;;;;;;;0.75;0.75;;;8.60;99.90;;;;;;5012944;28;20234;-76
2023/04/13 15:53:12;;;;;;;0.65;0.65;;;8.70;99.90;;;;;;4971235;28;20694;-76
2023/04/13 15:55:39;;;;;;;0.60;0.60;;;8.60;99.90;;;;;;5011857;28;20305;-76
2023/04/13 15:58:05;;;;;;;0.60;0.60;;;8.60;99.90;;;;;;5013280;28;20194;-76
2023/04/13 16:00:30;;;;;;;0.60;0.60;;;8.60;99.90;;;;;;4994856;28;20222;-76
2023/04/13 16:03:05;;;;;;;0.60;0.60;;;8.60;99.90;;;;;;5012628;28;20251;-76
2023/04/13 16:13:25;;;;;;;0.70;0.70;;;8.50;99.90;;;;;;4968532;28;20266;-74
2023/04/13 16:16:13;;;;;;;1.00;1.00;;;8.50;99.90;;;;;;4976305;28;20216;-75
2023/04/13 16:18:39;;;;;;;1.45;1.35;;;8.50;99.90;;;;;;4995796;28;20341;-75
2023/04/13 16:28:08;;;;;;;0.80;0.80;;;8.30;99.90;;;;;;4953748;29;20586;-71
2023/04/13 16:38:05;;;;;;;1.38;1.25;;;8.30;99.90;;;;;;4786607;30;20215;-70
2023/04/13 16:47:31;;;;;;;0.57;0.57;;;8.10;99.90;;;;;;4700188;30;20693;-68
2023/04/13 16:54:36;;;;;;;;;;;;;;;;;;;;;
2023/04/13 17:01:00;;;;;;;0.70;0.70;;;8.10;99.90;;;;;;4711134;30;20347;-69
2023/04/13 17:03:26;;;;;;;1.15;1.13;;;8.10;99.90;;;;;;4769490;30;20235;-68
2023/04/13 17:10:07;;;;;;;1.00;0.90;;;8.00;99.90;;;;;;4842893;29;20224;-69
2023/04/13 17:22:43;;;;;;;0.60;0.60;;;7.90;99.90;;;;;;4907526;29;20212;-68
2023/04/13 17:44:12;;;;;;;0.95;0.90;;;7.60;99.90;;;;;;5046677;28;20191;-67
2023/04/13 18:11:18;;;;;;;0.60;0.60;;;7.40;99.90;;;;;;4830488;29;20226;-67
2023/04/13 18:17:16;;;;;;;0.70;0.70;;;7.40;99.90;;;;;;4842165;29;21781;-68
2023/04/13 18:30:33;;;;;;;0.60;0.60;;;7.30;99.90;;;;;;4809138;29;20259;-67
2023/04/13 18:36:32;;;;;;;0.60;0.60;;;7.30;99.90;;;;;;4801622;29;20229;-68
2023/04/13 19:00:03;;;;;;;3.80;2.45;;;7.20;99.90;;;;;;4844760;29;20256;-69
2023/04/13 19:06:37;;;;;;;0.80;0.80;;;7.20;99.90;;;;;;4826339;29;20216;-74
2023/04/13 19:10:15;;;;;;;3.53;1.00;;;7.10;99.90;;;;;;4823113;29;20217;-75
2023/04/13 19:20:31;;;;;;;1.08;1.00;;;7.10;99.90;;;;;;4676296;30;20751;-74
2023/04/13 19:23:05;;;;;;;1.88;1.70;;;7.10;99.90;;;;;;4776979;29;20699;-75
2023/04/13 19:26:15;;;;;;;0.50;0.50;;;7.10;99.90;;;;;;4824003;29;20198;-74
2023/04/13 19:28:55;;;;;;;1.08;1.02;;;7.10;99.90;;;;;;4812231;29;20293;-73
2023/04/13 19:31:48;;;;;;;0.70;0.70;;;7.10;99.90;;;;;;4820642;29;20572;-74
2023/04/13 19:34:23;;;;;;;0.60;0.60;;;7.10;99.90;;;;;;4801407;29;20241;-75
2023/04/13 19:36:48;;;;;;;0.80;0.80;;;7.20;99.90;;;;;;4840714;29;20251;-76
2023/04/13 19:39:14;;;;;;;5.88;2.08;;;7.10;99.90;;;;;;4841142;29;20221;-75
2023/04/13 19:41:46;;;;;;;0.60;0.60;;;7.10;99.90;;;;;;4855459;29;20213;-75
2023/04/13 19:44:35;;;;;;;0.70;0.70;;;7.00;99.90;;;;;;4914409;29;20212;-74